sensor_id;sensor_type;location;lat;lon;timestamp;P1;durP1;ratioP1;P2;durP2;ratioP2
59105;SDS011;44891;50.204;8.132;2023-08-08T00:02:07;3.85;;;3.20;;
59105;SDS011;44891;50.204;8.132;2023-08-08T00:06:11;6.32;;;3.00;;
59105;SDS011;44891;50.204;8.132;2023-08-08T00:10:13;6.13;;;3.20;;
59105;SDS011;44891;50.204;8.132;2023-08-08T00:14:15;3.28;;;2.90;;
59105;SDS011;44891;50.204;8.132;2023-08-08T00:18:18;4.63;;;3.40;;
59105;SDS011;44891;50.204;8.132;2023-08-08T00:22:21;3.80;;;3.40;;
59105;SDS011;44891;50.204;8.132;2023-08-08T00:26:23;3.67;;;3.00;;
59105;SDS011;44891;50.204;8.132;2023-08-08T00:30:26;6.88;;;2.95;;
59105;SDS011;44891;50.204;8.132;2023-08-08T00:34:28;4.15;;;3.10;;
59105;SDS011;44891;50.204;8.132;2023-08-08T00:38:32;4.07;;;3.03;;
59105;SDS011;44891;50.204;8.132;2023-08-08T00:42:34;3.95;;;3.53;;
59105;SDS011;44891;50.204;8.132;2023-08-08T00:46:37;4.03;;;3.50;;
59105;SDS011;44891;50.204;8.132;2023-08-08T00:50:41;4.22;;;3.25;;
59105;SDS011;44891;50.204;8.132;2023-08-08T00:54:45;4.82;;;3.50;;
59105;SDS011;44891;50.204;8.132;2023-08-08T00:58:48;3.40;;;3.10;;
59105;SDS011;44891;50.204;8.132;2023-08-08T01:02:51;4.97;;;3.20;;
59105;SDS011;44891;50.204;8.132;2023-08-08T01:06:55;5.15;;;4.05;;
59105;SDS011;44891;50.204;8.132;2023-08-08T01:11:04;4.38;;;3.60;;
59105;SDS011;44891;50.204;8.132;2023-08-08T01:15:07;4.63;;;3.42;;
59105;SDS011;44891;50.204;8.132;2023-08-08T01:19:15;7.28;;;4.13;;
59105;SDS011;44891;50.204;8.132;2023-08-08T01:23:30;4.40;;;3.40;;
59105;SDS011;44891;50.204;8.132;2023-08-08T01:27:37;6.22;;;3.70;;
59105;SDS011;44891;50.204;8.132;2023-08-08T01:31:40;5.18;;;3.70;;
59105;SDS011;44891;50.204;8.132;2023-08-08T01:35:43;5.57;;;4.20;;
59105;SDS011;44891;50.204;8.132;2023-08-08T01:39:48;4.20;;;3.80;;
59105;SDS011;44891;50.204;8.132;2023-08-08T01:43:55;6.40;;;4.10;;
59105;SDS011;44891;50.204;8.132;2023-08-08T01:47:59;5.63;;;4.45;;
59105;SDS011;44891;50.204;8.132;2023-08-08T01:52:03;3.80;;;3.40;;
59105;SDS011;44891;50.204;8.132;2023-08-08T01:56:06;5.75;;;3.90;;
59105;SDS011;44891;50.204;8.132;2023-08-08T02:00:12;4.78;;;4.30;;
59105;SDS011;44891;50.204;8.132;2023-08-08T02:04:19;4.25;;;3.85;;
59105;SDS011;44891;50.204;8.132;2023-08-08T02:08:22;4.65;;;3.95;;
59105;SDS011;44891;50.204;8.132;2023-08-08T02:12:28;4.65;;;4.20;;
59105;SDS011;44891;50.204;8.132;2023-08-08T02:16:32;5.75;;;4.28;;
59105;SDS011;44891;50.204;8.132;2023-08-08T02:20:35;5.70;;;3.95;;
59105;SDS011;44891;50.204;8.132;2023-08-08T02:24:38;5.38;;;3.60;;
59105;SDS011;44891;50.204;8.132;2023-08-08T02:28:41;5.40;;;4.10;;
59105;SDS011;44891;50.204;8.132;2023-08-08T02:32:45;4.78;;;3.80;;
59105;SDS011;44891;50.204;8.132;2023-08-08T02:36:47;4.53;;;3.95;;
59105;SDS011;44891;50.204;8.132;2023-08-08T02:40:49;4.30;;;3.60;;
59105;SDS011;44891;50.204;8.132;2023-08-08T02:44:52;5.70;;;3.88;;
59105;SDS011;44891;50.204;8.132;2023-08-08T02:48:56;3.90;;;3.50;;
59105;SDS011;44891;50.204;8.132;2023-08-08T02:52:59;6.00;;;4.00;;
59105;SDS011;44891;50.204;8.132;2023-08-08T02:57:07;4.50;;;3.85;;
59105;SDS011;44891;50.204;8.132;2023-08-08T03:01:11;6.45;;;4.03;;
59105;SDS011;44891;50.204;8.132;2023-08-08T03:05:18;4.32;;;3.55;;
59105;SDS011;44891;50.204;8.132;2023-08-08T03:09:22;4.32;;;3.90;;
59105;SDS011;44891;50.204;8.132;2023-08-08T03:13:24;5.13;;;3.70;;
59105;SDS011;44891;50.204;8.132;2023-08-08T03:17:29;4.32;;;3.50;;
59105;SDS011;44891;50.204;8.132;2023-08-08T03:21:33;4.00;;;3.58;;
59105;SDS011;44891;50.204;8.132;2023-08-08T03:25:38;5.85;;;3.65;;
59105;SDS011;44891;50.204;8.132;2023-08-08T03:29:40;5.32;;;3.50;;
59105;SDS011;44891;50.204;8.132;2023-08-08T03:33:43;4.43;;;3.92;;
59105;SDS011;44891;50.204;8.132;2023-08-08T03:37:47;4.25;;;3.67;;
59105;SDS011;44891;50.204;8.132;2023-08-08T03:41:49;4.68;;;3.47;;
59105;SDS011;44891;50.204;8.132;2023-08-08T03:45:53;4.55;;;3.70;;
59105;SDS011;44891;50.204;8.132;2023-08-08T03:49:55;5.50;;;3.88;;
59105;SDS011;44891;50.204;8.132;2023-08-08T03:54:00;5.75;;;3.78;;
59105;SDS011;44891;50.204;8.132;2023-08-08T03:58:03;4.47;;;3.47;;
59105;SDS011;44891;50.204;8.132;2023-08-08T04:02:06;4.63;;;3.85;;
59105;SDS011;44891;50.204;8.132;2023-08-08T04:06:09;5.55;;;4.10;;
59105;SDS011;44891;50.204;8.132;2023-08-08T04:10:13;4.22;;;3.83;;
59105;SDS011;44891;50.204;8.132;2023-08-08T04:14:15;6.53;;;4.03;;
59105;SDS011;44891;50.204;8.132;2023-08-08T04:18:17;5.82;;;3.58;;
59105;SDS011;44891;50.204;8.132;2023-08-08T04:22:21;3.72;;;3.33;;
59105;SDS011;44891;50.204;8.132;2023-08-08T04:26:25;5.43;;;3.40;;
59105;SDS011;44891;50.204;8.132;2023-08-08T04:30:27;5.85;;;3.67;;
59105;SDS011;44891;50.204;8.132;2023-08-08T04:34:30;4.28;;;3.85;;
59105;SDS011;44891;50.204;8.132;2023-08-08T04:38:32;5.38;;;3.97;;
59105;SDS011;44891;50.204;8.132;2023-08-08T04:42:36;4.75;;;3.53;;
59105;SDS011;44891;50.204;8.132;2023-08-08T04:46:38;6.93;;;3.72;;
59105;SDS011;44891;50.204;8.132;2023-08-08T04:50:40;6.90;;;4.20;;
59105;SDS011;44891;50.204;8.132;2023-08-08T04:54:43;5.25;;;3.63;;
59105;SDS011;44891;50.204;8.132;2023-08-08T04:58:47;3.63;;;3.30;;
59105;SDS011;44891;50.204;8.132;2023-08-08T05:02:49;4.53;;;3.13;;
59105;SDS011;44891;50.204;8.132;2023-08-08T05:06:51;3.67;;;3.20;;
59105;SDS011;44891;50.204;8.132;2023-08-08T05:10:54;3.40;;;2.78;;
59105;SDS011;44891;50.204;8.132;2023-08-08T05:14:57;3.20;;;2.90;;
59105;SDS011;44891;50.204;8.132;2023-08-08T05:19:00;3.63;;;2.90;;
59105;SDS011;44891;50.204;8.132;2023-08-08T05:23:02;6.30;;;3.78;;
59105;SDS011;44891;50.204;8.132;2023-08-08T05:27:04;3.95;;;3.40;;
59105;SDS011;44891;50.204;8.132;2023-08-08T05:31:09;3.78;;;3.10;;
59105;SDS011;44891;50.204;8.132;2023-08-08T05:35:11;4.25;;;3.30;;
59105;SDS011;44891;50.204;8.132;2023-08-08T05:39:13;3.30;;;2.60;;
59105;SDS011;44891;50.204;8.132;2023-08-08T05:43:16;2.83;;;2.50;;
59105;SDS011;44891;50.204;8.132;2023-08-08T05:47:21;3.33;;;2.47;;
59105;SDS011;44891;50.204;8.132;2023-08-08T05:51:23;2.78;;;2.03;;
59105;SDS011;44891;50.204;8.132;2023-08-08T05:55:27;2.47;;;1.80;;
59105;SDS011;44891;50.204;8.132;2023-08-08T05:59:29;2.80;;;2.00;;
59105;SDS011;44891;50.204;8.132;2023-08-08T06:03:33;3.97;;;1.77;;
59105;SDS011;44891;50.204;8.132;2023-08-08T06:07:35;3.95;;;1.83;;
59105;SDS011;44891;50.204;8.132;2023-08-08T06:11:37;4.32;;;1.92;;
59105;SDS011;44891;50.204;8.132;2023-08-08T06:15:40;3.25;;;1.60;;
59105;SDS011;44891;50.204;8.132;2023-08-08T06:19:45;3.30;;;1.88;;
59105;SDS011;44891;50.204;8.132;2023-08-08T06:23:47;3.72;;;1.77;;
59105;SDS011;44891;50.204;8.132;2023-08-08T06:27:55;3.80;;;2.10;;
59105;SDS011;44891;50.204;8.132;2023-08-08T06:31:57;2.53;;;1.60;;
59105;SDS011;44891;50.204;8.132;2023-08-08T06:36:01;2.33;;;1.70;;
59105;SDS011;44891;50.204;8.132;2023-08-08T06:40:04;2.28;;;1.98;;
59105;SDS011;44891;50.204;8.132;2023-08-08T06:44:07;3.25;;;2.00;;
59105;SDS011;44891;50.204;8.132;2023-08-08T06:48:10;2.70;;;1.70;;
59105;SDS011;44891;50.204;8.132;2023-08-08T06:52:13;2.00;;;1.60;;
59105;SDS011;44891;50.204;8.132;2023-08-08T06:56:17;3.13;;;1.70;;
59105;SDS011;44891;50.204;8.132;2023-08-08T07:00:19;4.57;;;1.92;;
59105;SDS011;44891;50.204;8.132;2023-08-08T07:04:22;3.78;;;2.20;;
59105;SDS011;44891;50.204;8.132;2023-08-08T07:08:26;2.92;;;1.70;;
59105;SDS011;44891;50.204;8.132;2023-08-08T07:12:28;2.25;;;1.88;;
59105;SDS011;44891;50.204;8.132;2023-08-08T07:16:30;3.63;;;1.52;;
59105;SDS011;44891;50.204;8.132;2023-08-08T07:20:32;2.70;;;1.67;;
59105;SDS011;44891;50.204;8.132;2023-08-08T07:24:36;3.70;;;1.58;;
59105;SDS011;44891;50.204;8.132;2023-08-08T07:28:39;2.95;;;1.80;;
59105;SDS011;44891;50.204;8.132;2023-08-08T07:32:41;3.05;;;1.70;;
59105;SDS011;44891;50.204;8.132;2023-08-08T07:36:44;2.92;;;1.60;;
59105;SDS011;44891;50.204;8.132;2023-08-08T07:40:48;3.22;;;1.80;;
59105;SDS011;44891;50.204;8.132;2023-08-08T07:44:51;4.28;;;1.70;;
59105;SDS011;44891;50.204;8.132;2023-08-08T07:48:53;3.45;;;1.73;;
59105;SDS011;44891;50.204;8.132;2023-08-08T07:52:55;5.90;;;3.60;;
59105;SDS011;44891;50.204;8.132;2023-08-08T07:56:59;4.35;;;1.67;;
59105;SDS011;44891;50.204;8.132;2023-08-08T08:01:01;3.70;;;1.67;;
59105;SDS011;44891;50.204;8.132;2023-08-08T08:05:04;3.75;;;1.80;;
59105;SDS011;44891;50.204;8.132;2023-08-08T08:09:08;3.75;;;1.80;;
59105;SDS011;44891;50.204;8.132;2023-08-08T08:13:13;2.75;;;1.90;;
59105;SDS011;44891;50.204;8.132;2023-08-08T08:17:15;2.78;;;1.80;;
59105;SDS011;44891;50.204;8.132;2023-08-08T08:21:17;2.63;;;1.77;;
59105;SDS011;44891;50.204;8.132;2023-08-08T08:25:20;3.03;;;1.77;;
59105;SDS011;44891;50.204;8.132;2023-08-08T08:29:24;3.33;;;2.20;;
59105;SDS011;44891;50.204;8.132;2023-08-08T08:33:27;2.95;;;1.70;;
59105;SDS011;44891;50.204;8.132;2023-08-08T08:37:29;5.05;;;2.10;;
59105;SDS011;44891;50.204;8.132;2023-08-08T08:41:31;3.75;;;1.98;;
59105;SDS011;44891;50.204;8.132;2023-08-08T08:45:39;3.85;;;2.38;;
59105;SDS011;44891;50.204;8.132;2023-08-08T08:49:44;6.05;;;2.10;;
59105;SDS011;44891;50.204;8.132;2023-08-08T08:53:47;3.13;;;2.10;;
59105;SDS011;44891;50.204;8.132;2023-08-08T08:57:50;3.60;;;2.28;;
59105;SDS011;44891;50.204;8.132;2023-08-08T09:01:54;4.43;;;2.40;;
59105;SDS011;44891;50.204;8.132;2023-08-08T09:05:57;3.28;;;2.10;;
59105;SDS011;44891;50.204;8.132;2023-08-08T09:10:01;3.58;;;2.00;;
59105;SDS011;44891;50.204;8.132;2023-08-08T09:14:03;4.22;;;3.03;;
59105;SDS011;44891;50.204;8.132;2023-08-08T09:18:07;4.60;;;2.25;;
59105;SDS011;44891;50.204;8.132;2023-08-08T09:22:09;3.25;;;1.88;;
59105;SDS011;44891;50.204;8.132;2023-08-08T09:26:13;4.72;;;2.30;;
59105;SDS011;44891;50.204;8.132;2023-08-08T09:30:16;2.45;;;2.00;;
59105;SDS011;44891;50.204;8.132;2023-08-08T09:34:23;4.30;;;2.13;;
59105;SDS011;44891;50.204;8.132;2023-08-08T09:38:26;4.35;;;2.00;;
59105;SDS011;44891;50.204;8.132;2023-08-08T09:42:29;4.43;;;2.20;;
59105;SDS011;44891;50.204;8.132;2023-08-08T09:46:31;4.38;;;2.38;;
59105;SDS011;44891;50.204;8.132;2023-08-08T09:50:35;3.03;;;2.08;;
59105;SDS011;44891;50.204;8.132;2023-08-08T09:54:38;3.80;;;2.20;;
59105;SDS011;44891;50.204;8.132;2023-08-08T09:58:41;4.43;;;2.35;;
59105;SDS011;44891;50.204;8.132;2023-08-08T10:02:44;4.53;;;2.40;;
59105;SDS011;44891;50.204;8.132;2023-08-08T10:06:48;4.00;;;2.30;;
59105;SDS011;44891;50.204;8.132;2023-08-08T10:10:50;5.65;;;2.15;;
59105;SDS011;44891;50.204;8.132;2023-08-08T10:14:53;2.28;;;1.95;;
59105;SDS011;44891;50.204;8.132;2023-08-08T10:18:55;4.43;;;2.10;;
59105;SDS011;44891;50.204;8.132;2023-08-08T10:23:02;3.50;;;2.10;;
59105;SDS011;44891;50.204;8.132;2023-08-08T10:27:05;5.05;;;2.20;;
59105;SDS011;44891;50.204;8.132;2023-08-08T10:31:16;4.57;;;2.28;;
59105;SDS011;44891;50.204;8.132;2023-08-08T10:35:22;2.67;;;1.90;;
59105;SDS011;44891;50.204;8.132;2023-08-08T10:39:26;3.13;;;1.95;;
59105;SDS011;44891;50.204;8.132;2023-08-08T10:43:29;4.47;;;2.00;;
59105;SDS011;44891;50.204;8.132;2023-08-08T10:47:33;4.35;;;1.92;;
59105;SDS011;44891;50.204;8.132;2023-08-08T10:51:39;3.50;;;2.10;;
59105;SDS011;44891;50.204;8.132;2023-08-08T10:55:47;2.95;;;2.10;;
59105;SDS011;44891;50.204;8.132;2023-08-08T11:04:21;4.00;;;2.30;;
59105;SDS011;44891;50.204;8.132;2023-08-08T11:08:25;4.22;;;2.13;;
59105;SDS011;44891;50.204;8.132;2023-08-08T11:12:30;4.53;;;2.20;;
59105;SDS011;44891;50.204;8.132;2023-08-08T11:16:33;5.20;;;2.17;;
59105;SDS011;44891;50.204;8.132;2023-08-08T11:20:36;3.58;;;2.25;;
59105;SDS011;44891;50.204;8.132;2023-08-08T11:24:40;4.07;;;2.25;;
59105;SDS011;44891;50.204;8.132;2023-08-08T11:28:49;4.00;;;2.17;;
59105;SDS011;44891;50.204;8.132;2023-08-08T11:32:52;4.32;;;2.03;;
59105;SDS011;44891;50.204;8.132;2023-08-08T11:36:55;4.30;;;2.10;;
59105;SDS011;44891;50.204;8.132;2023-08-08T11:40:59;4.60;;;2.15;;
59105;SDS011;44891;50.204;8.132;2023-08-08T11:45:05;3.28;;;2.25;;
59105;SDS011;44891;50.204;8.132;2023-08-08T11:49:09;6.13;;;2.30;;
59105;SDS011;44891;50.204;8.132;2023-08-08T11:53:12;3.42;;;1.98;;
59105;SDS011;44891;50.204;8.132;2023-08-08T11:57:16;4.10;;;2.17;;
59105;SDS011;44891;50.204;8.132;2023-08-08T12:01:21;5.75;;;2.63;;
59105;SDS011;44891;50.204;8.132;2023-08-08T12:05:25;4.43;;;2.03;;
59105;SDS011;44891;50.204;8.132;2023-08-08T12:09:28;2.65;;;1.92;;
59105;SDS011;44891;50.204;8.132;2023-08-08T12:13:31;3.55;;;1.90;;
59105;SDS011;44891;50.204;8.132;2023-08-08T12:17:37;3.53;;;1.92;;
59105;SDS011;44891;50.204;8.132;2023-08-08T12:21:40;3.28;;;2.17;;
59105;SDS011;44891;50.204;8.132;2023-08-08T12:25:42;3.97;;;2.10;;
59105;SDS011;44891;50.204;8.132;2023-08-08T12:29:45;4.32;;;1.98;;
59105;SDS011;44891;50.204;8.132;2023-08-08T12:33:51;3.05;;;1.77;;
59105;SDS011;44891;50.204;8.132;2023-08-08T12:37:53;4.32;;;1.80;;
59105;SDS011;44891;50.204;8.132;2023-08-08T12:41:56;3.60;;;1.88;;
59105;SDS011;44891;50.204;8.132;2023-08-08T12:45:58;3.72;;;1.92;;
59105;SDS011;44891;50.204;8.132;2023-08-08T12:50:02;3.45;;;1.90;;
59105;SDS011;44891;50.204;8.132;2023-08-08T12:54:04;3.63;;;1.90;;
59105;SDS011;44891;50.204;8.132;2023-08-08T12:58:07;2.75;;;1.80;;
59105;SDS011;44891;50.204;8.132;2023-08-08T13:02:09;3.13;;;1.90;;
59105;SDS011;44891;50.204;8.132;2023-08-08T13:06:13;4.32;;;1.98;;
59105;SDS011;44891;50.204;8.132;2023-08-08T13:10:15;3.22;;;1.80;;
59105;SDS011;44891;50.204;8.132;2023-08-08T13:14:20;4.88;;;1.77;;
59105;SDS011;44891;50.204;8.132;2023-08-08T13:18:22;8.13;;;2.10;;
59105;SDS011;44891;50.204;8.132;2023-08-08T13:22:26;2.65;;;1.60;;
59105;SDS011;44891;50.204;8.132;2023-08-08T13:26:28;2.83;;;1.55;;
59105;SDS011;44891;50.204;8.132;2023-08-08T13:30:33;3.17;;;1.70;;
59105;SDS011;44891;50.204;8.132;2023-08-08T13:34:36;3.80;;;1.95;;
59105;SDS011;44891;50.204;8.132;2023-08-08T13:38:40;3.35;;;1.75;;
59105;SDS011;44891;50.204;8.132;2023-08-08T13:42:42;2.88;;;1.80;;
59105;SDS011;44891;50.204;8.132;2023-08-08T13:46:48;3.53;;;1.95;;
59105;SDS011;44891;50.204;8.132;2023-08-08T13:50:52;3.63;;;1.90;;
59105;SDS011;44891;50.204;8.132;2023-08-08T13:54:56;5.00;;;1.70;;
59105;SDS011;44891;50.204;8.132;2023-08-08T13:58:58;3.17;;;1.60;;
59105;SDS011;44891;50.204;8.132;2023-08-08T14:03:01;3.45;;;1.80;;
59105;SDS011;44891;50.204;8.132;2023-08-08T14:07:04;4.13;;;1.85;;
59105;SDS011;44891;50.204;8.132;2023-08-08T14:11:09;3.78;;;1.85;;
59105;SDS011;44891;50.204;8.132;2023-08-08T14:15:11;2.83;;;1.50;;
59105;SDS011;44891;50.204;8.132;2023-08-08T14:19:13;3.05;;;1.83;;
59105;SDS011;44891;50.204;8.132;2023-08-08T14:23:17;2.67;;;1.48;;
59105;SDS011;44891;50.204;8.132;2023-08-08T14:27:21;4.03;;;1.50;;
59105;SDS011;44891;50.204;8.132;2023-08-08T14:31:24;3.53;;;1.70;;
59105;SDS011;44891;50.204;8.132;2023-08-08T14:35:27;5.13;;;2.05;;
59105;SDS011;44891;50.204;8.132;2023-08-08T14:39:29;2.88;;;1.40;;
59105;SDS011;44891;50.204;8.132;2023-08-08T14:43:33;2.92;;;1.70;;
59105;SDS011;44891;50.204;8.132;2023-08-08T14:47:35;4.25;;;1.80;;
59105;SDS011;44891;50.204;8.132;2023-08-08T14:51:38;3.88;;;1.70;;
59105;SDS011;44891;50.204;8.132;2023-08-08T14:55:40;3.30;;;1.60;;
59105;SDS011;44891;50.204;8.132;2023-08-08T14:59:44;2.67;;;1.60;;
59105;SDS011;44891;50.204;8.132;2023-08-08T15:03:46;4.35;;;1.85;;
59105;SDS011;44891;50.204;8.132;2023-08-08T15:07:51;3.25;;;1.70;;
59105;SDS011;44891;50.204;8.132;2023-08-08T15:11:54;4.65;;;1.80;;
59105;SDS011;44891;50.204;8.132;2023-08-08T15:15:58;4.15;;;1.88;;
59105;SDS011;44891;50.204;8.132;2023-08-08T15:20:02;4.15;;;2.10;;
59105;SDS011;44891;50.204;8.132;2023-08-08T15:24:06;2.83;;;1.80;;
59105;SDS011;44891;50.204;8.132;2023-08-08T15:28:10;2.65;;;1.83;;
59105;SDS011;44891;50.204;8.132;2023-08-08T15:32:14;5.18;;;1.85;;
59105;SDS011;44891;50.204;8.132;2023-08-08T15:36:17;3.47;;;1.90;;
59105;SDS011;44891;50.204;8.132;2023-08-08T15:40:21;3.88;;;2.03;;
59105;SDS011;44891;50.204;8.132;2023-08-08T15:44:23;4.22;;;2.05;;
59105;SDS011;44891;50.204;8.132;2023-08-08T15:48:27;3.50;;;1.80;;
59105;SDS011;44891;50.204;8.132;2023-08-08T15:52:29;3.42;;;1.83;;
59105;SDS011;44891;50.204;8.132;2023-08-08T15:56:33;3.08;;;1.90;;
59105;SDS011;44891;50.204;8.132;2023-08-08T16:00:37;4.20;;;2.05;;
59105;SDS011;44891;50.204;8.132;2023-08-08T16:04:41;4.18;;;1.80;;
59105;SDS011;44891;50.204;8.132;2023-08-08T16:08:44;4.57;;;2.13;;
59105;SDS011;44891;50.204;8.132;2023-08-08T16:12:46;4.30;;;1.83;;
59105;SDS011;44891;50.204;8.132;2023-08-08T16:16:48;3.50;;;1.67;;
59105;SDS011;44891;50.204;8.132;2023-08-08T16:20:52;4.18;;;2.17;;
59105;SDS011;44891;50.204;8.132;2023-08-08T16:24:55;3.80;;;1.90;;
59105;SDS011;44891;50.204;8.132;2023-08-08T16:28:57;3.90;;;2.33;;
59105;SDS011;44891;50.204;8.132;2023-08-08T16:32:59;4.88;;;2.17;;
59105;SDS011;44891;50.204;8.132;2023-08-08T16:37:03;3.65;;;2.28;;
59105;SDS011;44891;50.204;8.132;2023-08-08T16:41:08;4.20;;;2.10;;
59105;SDS011;44891;50.204;8.132;2023-08-08T16:45:12;4.50;;;2.00;;
59105;SDS011;44891;50.204;8.132;2023-08-08T16:49:14;2.78;;;2.05;;
59105;SDS011;44891;50.204;8.132;2023-08-08T16:53:20;3.83;;;2.20;;
59105;SDS011;44891;50.204;8.132;2023-08-08T16:57:22;4.50;;;2.20;;
59105;SDS011;44891;50.204;8.132;2023-08-08T17:01:25;6.00;;;2.40;;
59105;SDS011;44891;50.204;8.132;2023-08-08T17:05:27;3.60;;;2.15;;
59105;SDS011;44891;50.204;8.132;2023-08-08T17:09:31;3.40;;;2.10;;
59105;SDS011;44891;50.204;8.132;2023-08-08T17:13:34;4.60;;;1.98;;
59105;SDS011;44891;50.204;8.132;2023-08-08T17:17:36;3.75;;;1.95;;
59105;SDS011;44891;50.204;8.132;2023-08-08T17:21:40;3.17;;;2.03;;
59105;SDS011;44891;50.204;8.132;2023-08-08T17:25:43;5.53;;;2.40;;
59105;SDS011;44891;50.204;8.132;2023-08-08T17:29:46;4.95;;;2.20;;
59105;SDS011;44891;50.204;8.132;2023-08-08T17:33:48;3.72;;;2.22;;
59105;SDS011;44891;50.204;8.132;2023-08-08T17:37:50;4.35;;;2.13;;
59105;SDS011;44891;50.204;8.132;2023-08-08T17:41:54;4.47;;;2.00;;
59105;SDS011;44891;50.204;8.132;2023-08-08T17:45:56;4.57;;;2.15;;
59105;SDS011;44891;50.204;8.132;2023-08-08T17:50:03;4.30;;;2.13;;
59105;SDS011;44891;50.204;8.132;2023-08-08T17:54:10;4.15;;;2.10;;
59105;SDS011;44891;50.204;8.132;2023-08-08T17:58:14;3.97;;;2.10;;
59105;SDS011;44891;50.204;8.132;2023-08-08T18:02:17;2.92;;;2.22;;
59105;SDS011;44891;50.204;8.132;2023-08-08T18:06:19;4.25;;;2.50;;
59105;SDS011;44891;50.204;8.132;2023-08-08T18:10:22;4.25;;;2.25;;
59105;SDS011;44891;50.204;8.132;2023-08-08T18:14:26;4.20;;;2.38;;
59105;SDS011;44891;50.204;8.132;2023-08-08T18:18:29;5.75;;;2.90;;
59105;SDS011;44891;50.204;8.132;2023-08-08T18:22:32;3.08;;;2.10;;
59105;SDS011;44891;50.204;8.132;2023-08-08T18:26:35;4.60;;;2.35;;
59105;SDS011;44891;50.204;8.132;2023-08-08T18:30:38;4.88;;;2.30;;
59105;SDS011;44891;50.204;8.132;2023-08-08T18:34:41;4.40;;;2.25;;
59105;SDS011;44891;50.204;8.132;2023-08-08T18:38:43;4.07;;;2.38;;
59105;SDS011;44891;50.204;8.132;2023-08-08T18:42:45;4.78;;;2.40;;
59105;SDS011;44891;50.204;8.132;2023-08-08T18:46:49;5.45;;;2.25;;
59105;SDS011;44891;50.204;8.132;2023-08-08T18:50:52;4.03;;;2.15;;
59105;SDS011;44891;50.204;8.132;2023-08-08T18:54:55;4.22;;;2.10;;
59105;SDS011;44891;50.204;8.132;2023-08-08T18:58:57;4.45;;;2.10;;
59105;SDS011;44891;50.204;8.132;2023-08-08T19:03:01;4.38;;;2.00;;
59105;SDS011;44891;50.204;8.132;2023-08-08T19:07:03;3.78;;;2.25;;
59105;SDS011;44891;50.204;8.132;2023-08-08T19:11:06;3.33;;;2.08;;
59105;SDS011;44891;50.204;8.132;2023-08-08T19:15:08;3.80;;;2.40;;
59105;SDS011;44891;50.204;8.132;2023-08-08T19:19:12;3.20;;;2.33;;
59105;SDS011;44891;50.204;8.132;2023-08-08T19:23:15;3.05;;;2.00;;
59105;SDS011;44891;50.204;8.132;2023-08-08T19:27:17;3.30;;;2.20;;
59105;SDS011;44891;50.204;8.132;2023-08-08T19:31:20;4.75;;;3.42;;
59105;SDS011;44891;50.204;8.132;2023-08-08T19:35:23;5.15;;;3.00;;
59105;SDS011;44891;50.204;8.132;2023-08-08T19:39:28;5.35;;;2.50;;
59105;SDS011;44891;50.204;8.132;2023-08-08T19:43:35;3.58;;;2.40;;
59105;SDS011;44891;50.204;8.132;2023-08-08T19:47:37;5.60;;;2.92;;
59105;SDS011;44891;50.204;8.132;2023-08-08T19:51:41;10.23;;;5.82;;
59105;SDS011;44891;50.204;8.132;2023-08-08T19:55:43;7.47;;;4.28;;
59105;SDS011;44891;50.204;8.132;2023-08-08T19:59:46;5.53;;;3.20;;
59105;SDS011;44891;50.204;8.132;2023-08-08T20:03:50;5.28;;;2.78;;
59105;SDS011;44891;50.204;8.132;2023-08-08T20:07:54;4.78;;;2.40;;
59105;SDS011;44891;50.204;8.132;2023-08-08T20:11:56;2.45;;;2.00;;
59105;SDS011;44891;50.204;8.132;2023-08-08T20:15:58;5.90;;;2.20;;
59105;SDS011;44891;50.204;8.132;2023-08-08T20:20:01;3.58;;;1.90;;
59105;SDS011;44891;50.204;8.132;2023-08-08T20:24:06;2.80;;;1.85;;
59105;SDS011;44891;50.204;8.132;2023-08-08T20:28:13;3.20;;;2.00;;
59105;SDS011;44891;50.204;8.132;2023-08-08T20:32:17;7.03;;;2.30;;
59105;SDS011;44891;50.204;8.132;2023-08-08T20:36:19;2.95;;;2.00;;
59105;SDS011;44891;50.204;8.132;2023-08-08T20:40:23;3.60;;;1.90;;
59105;SDS011;44891;50.204;8.132;2023-08-08T20:44:25;3.25;;;1.95;;
59105;SDS011;44891;50.204;8.132;2023-08-08T20:48:28;3.38;;;2.33;;
59105;SDS011;44891;50.204;8.132;2023-08-08T20:52:30;3.55;;;2.33;;
59105;SDS011;44891;50.204;8.132;2023-08-08T20:56:35;6.65;;;2.58;;
59105;SDS011;44891;50.204;8.132;2023-08-08T21:00:37;3.30;;;2.22;;
59105;SDS011;44891;50.204;8.132;2023-08-08T21:04:40;5.22;;;2.17;;
59105;SDS011;44891;50.204;8.132;2023-08-08T21:08:44;3.22;;;2.10;;
59105;SDS011;44891;50.204;8.132;2023-08-08T21:12:48;4.80;;;2.20;;
59105;SDS011;44891;50.204;8.132;2023-08-08T21:16:50;3.92;;;2.33;;
59105;SDS011;44891;50.204;8.132;2023-08-08T21:20:53;2.78;;;2.13;;
59105;SDS011;44891;50.204;8.132;2023-08-08T21:24:55;5.10;;;2.38;;
59105;SDS011;44891;50.204;8.132;2023-08-08T21:28:59;6.32;;;2.33;;
59105;SDS011;44891;50.204;8.132;2023-08-08T21:33:01;4.00;;;2.60;;
59105;SDS011;44891;50.204;8.132;2023-08-08T21:37:04;4.88;;;2.75;;
59105;SDS011;44891;50.204;8.132;2023-08-08T21:41:06;5.05;;;2.63;;
59105;SDS011;44891;50.204;8.132;2023-08-08T21:45:12;4.00;;;3.13;;
59105;SDS011;44891;50.204;8.132;2023-08-08T21:49:14;4.93;;;2.90;;
59105;SDS011;44891;50.204;8.132;2023-08-08T21:53:16;4.63;;;2.97;;
59105;SDS011;44891;50.204;8.132;2023-08-08T21:57:20;4.68;;;2.80;;
59105;SDS011;44891;50.204;8.132;2023-08-08T22:01:24;6.78;;;3.45;;
59105;SDS011;44891;50.204;8.132;2023-08-08T22:05:26;5.15;;;2.83;;
59105;SDS011;44891;50.204;8.132;2023-08-08T22:09:29;5.70;;;3.35;;
59105;SDS011;44891;50.204;8.132;2023-08-08T22:13:31;4.88;;;3.08;;
59105;SDS011;44891;50.204;8.132;2023-08-08T22:17:35;4.82;;;3.15;;
59105;SDS011;44891;50.204;8.132;2023-08-08T22:21:37;5.88;;;3.35;;
59105;SDS011;44891;50.204;8.132;2023-08-08T22:25:40;6.65;;;3.58;;
59105;SDS011;44891;50.204;8.132;2023-08-08T22:29:42;5.70;;;3.47;;
59105;SDS011;44891;50.204;8.132;2023-08-08T22:33:46;6.50;;;3.53;;
59105;SDS011;44891;50.204;8.132;2023-08-08T22:37:48;4.82;;;3.50;;
59105;SDS011;44891;50.204;8.132;2023-08-08T22:41:51;5.40;;;3.83;;
59105;SDS011;44891;50.204;8.132;2023-08-08T22:45:53;4.53;;;3.50;;
59105;SDS011;44891;50.204;8.132;2023-08-08T22:49:57;6.43;;;3.50;;
59105;SDS011;44891;50.204;8.132;2023-08-08T22:53:59;5.75;;;3.50;;
59105;SDS011;44891;50.204;8.132;2023-08-08T22:58:03;5.28;;;3.90;;
59105;SDS011;44891;50.204;8.132;2023-08-08T23:02:09;5.22;;;3.65;;
59105;SDS011;44891;50.204;8.132;2023-08-08T23:06:13;5.32;;;3.80;;
59105;SDS011;44891;50.204;8.132;2023-08-08T23:10:15;4.70;;;3.60;;
59105;SDS011;44891;50.204;8.132;2023-08-08T23:14:18;5.85;;;4.00;;
59105;SDS011;44891;50.204;8.132;2023-08-08T23:18:20;5.88;;;4.00;;
59105;SDS011;44891;50.204;8.132;2023-08-08T23:22:27;4.85;;;3.58;;
59105;SDS011;44891;50.204;8.132;2023-08-08T23:26:29;5.07;;;3.80;;
59105;SDS011;44891;50.204;8.132;2023-08-08T23:30:31;6.45;;;3.78;;
59105;SDS011;44891;50.204;8.132;2023-08-08T23:34:34;7.05;;;3.97;;
59105;SDS011;44891;50.204;8.132;2023-08-08T23:38:38;5.28;;;3.97;;
59105;SDS011;44891;50.204;8.132;2023-08-08T23:42:40;7.10;;;4.68;;
59105;SDS011;44891;50.204;8.132;2023-08-08T23:46:42;4.80;;;4.00;;
59105;SDS011;44891;50.204;8.132;2023-08-08T23:50:46;6.28;;;4.30;;
59105;SDS011;44891;50.204;8.132;2023-08-08T23:54:50;7.40;;;4.55;;
59105;SDS011;44891;50.204;8.132;2023-08-08T23:58:52;6.85;;;4.20;;
